sensor_id;sensor_type;location;lat;lon;timestamp;pressure;altitude;pressure_sealevel;temperature;humidity
9523;BME280;63165;43.016;25.784;2023-10-08T00:02:23;100333.88;;;10.55;80.71
9523;BME280;63165;43.016;25.784;2023-10-08T00:04:52;100346.13;;;10.51;80.52
9523;BME280;63165;43.016;25.784;2023-10-08T00:07:20;100335.63;;;10.53;80.29
9523;BME280;63165;43.016;25.784;2023-10-08T00:09:49;100336.63;;;10.42;80.46
9523;BME280;63165;43.016;25.784;2023-10-08T00:12:18;100332.38;;;10.34;80.68
9523;BME280;63165;43.016;25.784;2023-10-08T00:14:47;100324.50;;;10.35;81.01
9523;BME280;63165;43.016;25.784;2023-10-08T00:17:19;100321.97;;;10.31;81.35
9523;BME280;63165;43.016;25.784;2023-10-08T00:19:46;100319.34;;;10.27;81.50
9523;BME280;63165;43.016;25.784;2023-10-08T00:22:18;100314.13;;;10.24;81.32
9523;BME280;63165;43.016;25.784;2023-10-08T00:24:45;100309.81;;;10.20;81.38
9523;BME280;63165;43.016;25.784;2023-10-08T00:27:15;100314.25;;;10.14;81.60
9523;BME280;63165;43.016;25.784;2023-10-08T00:29:43;100306.53;;;10.01;81.84
9523;BME280;63165;43.016;25.784;2023-10-08T00:32:12;100303.94;;;10.01;82.17
9523;BME280;63165;43.016;25.784;2023-10-08T00:34:41;100303.16;;;9.91;82.49
9523;BME280;63165;43.016;25.784;2023-10-08T00:37:09;100311.84;;;9.94;82.62
9523;BME280;63165;43.016;25.784;2023-10-08T00:39:40;100298.84;;;9.86;82.76
9523;BME280;63165;43.016;25.784;2023-10-08T00:42:08;100299.78;;;9.79;83.52
9523;BME280;63165;43.016;25.784;2023-10-08T00:44:35;100299.78;;;9.79;83.43
9523;BME280;63165;43.016;25.784;2023-10-08T00:47:15;100297.19;;;9.77;83.41
9523;BME280;63165;43.016;25.784;2023-10-08T00:49:52;100282.44;;;9.73;83.75
9523;BME280;63165;43.016;25.784;2023-10-08T00:52:33;100284.22;;;9.66;84.13
9523;BME280;63165;43.016;25.784;2023-10-08T00:55:08;100280.75;;;9.67;84.10
9523;BME280;63165;43.016;25.784;2023-10-08T00:57:40;100279.91;;;9.65;84.14
9523;BME280;63165;43.016;25.784;2023-10-08T01:00:09;100277.25;;;9.67;84.09
9523;BME280;63165;43.016;25.784;2023-10-08T01:02:49;100290.34;;;9.62;84.08
9523;BME280;63165;43.016;25.784;2023-10-08T01:05:25;100266.00;;;9.60;84.06
9523;BME280;63165;43.016;25.784;2023-10-08T01:08:09;100288.66;;;9.55;84.65
9523;BME280;63165;43.016;25.784;2023-10-08T01:10:40;100285.34;;;9.41;85.00
9523;BME280;63165;43.016;25.784;2023-10-08T01:13:09;100275.69;;;9.44;85.18
9523;BME280;63165;43.016;25.784;2023-10-08T01:15:41;100267.94;;;9.37;85.28
9523;BME280;63165;43.016;25.784;2023-10-08T01:18:12;100267.91;;;9.40;85.26
9523;BME280;63165;43.016;25.784;2023-10-08T01:20:43;100270.53;;;9.35;85.24
9523;BME280;63165;43.016;25.784;2023-10-08T01:23:20;100267.97;;;9.33;85.54
9523;BME280;63165;43.016;25.784;2023-10-08T01:25:49;100277.50;;;9.38;85.79
9523;BME280;63165;43.016;25.784;2023-10-08T01:28:18;100254.03;;;9.36;85.76
9523;BME280;63165;43.016;25.784;2023-10-08T01:30:52;100280.19;;;9.30;85.87
9523;BME280;63165;43.016;25.784;2023-10-08T01:33:20;100261.06;;;9.26;86.47
9523;BME280;63165;43.016;25.784;2023-10-08T01:35:48;100236.72;;;9.23;86.46
9523;BME280;63165;43.016;25.784;2023-10-08T01:38:15;100249.78;;;9.24;86.65
9523;BME280;63165;43.016;25.784;2023-10-08T01:40:50;100260.22;;;9.20;86.51
9523;BME280;63165;43.016;25.784;2023-10-08T01:43:18;100235.03;;;9.19;86.88
9523;BME280;63165;43.016;25.784;2023-10-08T01:45:46;100241.91;;;9.27;86.42
9523;BME280;63165;43.016;25.784;2023-10-08T01:48:17;100245.41;;;9.28;86.81
9523;BME280;63165;43.016;25.784;2023-10-08T01:50:46;100267.13;;;9.28;86.50
9523;BME280;63165;43.016;25.784;2023-10-08T01:53:15;100242.78;;;9.26;86.98
9523;BME280;63165;43.016;25.784;2023-10-08T01:55:45;100247.97;;;9.31;87.52
9523;BME280;63165;43.016;25.784;2023-10-08T01:58:18;100237.56;;;9.28;87.08
9523;BME280;63165;43.016;25.784;2023-10-08T02:00:46;100241.81;;;9.35;86.62
9523;BME280;63165;43.016;25.784;2023-10-08T02:03:13;100243.56;;;9.41;86.34
9523;BME280;63165;43.016;25.784;2023-10-08T02:05:43;100247.03;;;9.38;86.16
9523;BME280;63165;43.016;25.784;2023-10-08T02:08:11;100234.03;;;9.30;86.40
9523;BME280;63165;43.016;25.784;2023-10-08T02:10:40;100237.50;;;9.36;86.19
9523;BME280;63165;43.016;25.784;2023-10-08T02:13:09;100247.97;;;9.29;86.17
9523;BME280;63165;43.016;25.784;2023-10-08T02:15:42;100261.91;;;9.31;86.25
9523;BME280;63165;43.016;25.784;2023-10-08T02:18:10;100257.59;;;9.26;86.22
9523;BME280;63165;43.016;25.784;2023-10-08T02:20:39;100247.16;;;9.24;86.89
9523;BME280;63165;43.016;25.784;2023-10-08T02:23:07;100239.34;;;9.23;86.92
9523;BME280;63165;43.016;25.784;2023-10-08T02:25:37;100251.50;;;9.24;86.66
9523;BME280;63165;43.016;25.784;2023-10-08T02:28:06;100229.75;;;9.26;86.78
9523;BME280;63165;43.016;25.784;2023-10-08T02:30:34;100241.88;;;9.32;86.34
9523;BME280;63165;43.016;25.784;2023-10-08T02:33:06;100256.63;;;9.36;86.38
9523;BME280;63165;43.016;25.784;2023-10-08T02:35:40;100251.41;;;9.36;86.27
9523;BME280;63165;43.016;25.784;2023-10-08T02:38:09;100227.06;;;9.31;86.14
9523;BME280;63165;43.016;25.784;2023-10-08T02:40:38;100233.19;;;9.31;86.64
9523;BME280;63165;43.016;25.784;2023-10-08T02:43:10;100234.91;;;9.31;86.41
9523;BME280;63165;43.016;25.784;2023-10-08T02:45:40;100239.31;;;9.26;86.44
9523;BME280;63165;43.016;25.784;2023-10-08T02:48:08;100235.88;;;9.21;86.84
9523;BME280;63165;43.016;25.784;2023-10-08T02:50:38;100230.66;;;9.22;87.17
9523;BME280;63165;43.016;25.784;2023-10-08T02:53:06;100240.25;;;9.17;87.72
9523;BME280;63165;43.016;25.784;2023-10-08T02:55:37;100215.91;;;9.12;87.65
9523;BME280;63165;43.016;25.784;2023-10-08T02:58:09;100221.06;;;9.21;88.04
9523;BME280;63165;43.016;25.784;2023-10-08T03:00:40;100224.59;;;9.16;87.64
9523;BME280;63165;43.016;25.784;2023-10-08T03:03:09;100213.25;;;9.21;87.95
9523;BME280;63165;43.016;25.784;2023-10-08T03:05:46;100224.56;;;9.20;87.80
9523;BME280;63165;43.016;25.784;2023-10-08T03:08:14;100226.28;;;9.23;87.83
9523;BME280;63165;43.016;25.784;2023-10-08T03:10:46;100211.47;;;9.26;87.86
9523;BME280;63165;43.016;25.784;2023-10-08T03:13:14;100215.84;;;9.24;88.11
9523;BME280;63165;43.016;25.784;2023-10-08T03:15:42;100201.88;;;9.25;87.85
9523;BME280;63165;43.016;25.784;2023-10-08T03:18:35;100203.63;;;9.25;87.44
9523;BME280;63165;43.016;25.784;2023-10-08T03:21:03;100201.00;;;9.28;87.24
9523;BME280;63165;43.016;25.784;2023-10-08T03:23:32;100217.63;;;9.16;86.86
9523;BME280;63165;43.016;25.784;2023-10-08T03:26:09;100216.78;;;9.12;86.98
9523;BME280;63165;43.016;25.784;2023-10-08T03:28:37;100222.06;;;9.03;87.21
9523;BME280;63165;43.016;25.784;2023-10-08T03:31:07;100215.13;;;9.02;86.91
9523;BME280;63165;43.016;25.784;2023-10-08T03:33:43;100201.19;;;9.03;86.83
9523;BME280;63165;43.016;25.784;2023-10-08T03:36:15;100197.72;;;9.01;87.12
9523;BME280;63165;43.016;25.784;2023-10-08T03:39:00;100224.72;;;8.99;87.51
9523;BME280;63165;43.016;25.784;2023-10-08T03:41:36;100208.22;;;8.95;87.44
9523;BME280;63165;43.016;25.784;2023-10-08T03:44:06;100201.28;;;8.92;87.71
9523;BME280;63165;43.016;25.784;2023-10-08T03:46:39;100203.84;;;8.97;88.00
9523;BME280;63165;43.016;25.784;2023-10-08T03:49:10;100206.53;;;8.91;87.95
9523;BME280;63165;43.016;25.784;2023-10-08T03:51:51;100203.91;;;8.91;88.11
9523;BME280;63165;43.016;25.784;2023-10-08T03:54:19;100200.41;;;8.92;88.55
9523;BME280;63165;43.016;25.784;2023-10-08T03:56:55;100208.22;;;8.95;88.25
9523;BME280;63165;43.016;25.784;2023-10-08T03:59:23;100194.34;;;8.90;88.54
9523;BME280;63165;43.016;25.784;2023-10-08T04:02:01;100191.75;;;8.88;88.62
9523;BME280;63165;43.016;25.784;2023-10-08T04:04:40;100204.84;;;8.81;88.08
9523;BME280;63165;43.016;25.784;2023-10-08T04:07:19;100211.84;;;8.76;87.84
9523;BME280;63165;43.016;25.784;2023-10-08T04:09:55;100188.44;;;8.68;87.64
9523;BME280;63165;43.016;25.784;2023-10-08T04:12:46;100190.22;;;8.60;87.94
9523;BME280;63165;43.016;25.784;2023-10-08T04:15:17;100195.44;;;8.57;88.32
9523;BME280;63165;43.016;25.784;2023-10-08T04:17:45;100185.03;;;8.52;88.60
9523;BME280;63165;43.016;25.784;2023-10-08T04:20:18;100199.78;;;8.54;88.82
9523;BME280;63165;43.016;25.784;2023-10-08T04:22:59;100206.75;;;8.51;88.83
9523;BME280;63165;43.016;25.784;2023-10-08T04:25:27;100193.75;;;8.46;89.18
9523;BME280;63165;43.016;25.784;2023-10-08T04:27:55;100203.28;;;8.50;89.49
9523;BME280;63165;43.016;25.784;2023-10-08T04:30:25;100213.72;;;8.52;89.56
9523;BME280;63165;43.016;25.784;2023-10-08T04:32:59;100185.88;;;8.55;89.90
9523;BME280;63165;43.016;25.784;2023-10-08T04:35:34;100187.59;;;8.58;89.43
9523;BME280;63165;43.016;25.784;2023-10-08T04:38:06;100190.19;;;8.63;90.33
9523;BME280;63165;43.016;25.784;2023-10-08T04:40:34;100174.53;;;8.63;89.90
9523;BME280;63165;43.016;25.784;2023-10-08T04:43:07;100191.84;;;8.74;89.58
9523;BME280;63165;43.016;25.784;2023-10-08T04:45:36;100189.25;;;8.74;89.15
9523;BME280;63165;43.016;25.784;2023-10-08T04:48:05;100187.47;;;8.77;89.53
9523;BME280;63165;43.016;25.784;2023-10-08T04:50:37;100191.84;;;8.76;89.86
9523;BME280;63165;43.016;25.784;2023-10-08T04:53:10;100186.63;;;8.73;89.52
9523;BME280;63165;43.016;25.784;2023-10-08T04:55:41;100201.41;;;8.76;89.52
9523;BME280;63165;43.016;25.784;2023-10-08T04:58:14;100197.97;;;8.72;90.45
9523;BME280;63165;43.016;25.784;2023-10-08T05:00:47;100187.47;;;8.80;90.12
9523;BME280;63165;43.016;25.784;2023-10-08T05:03:25;100190.91;;;8.85;90.11
9523;BME280;63165;43.016;25.784;2023-10-08T05:06:01;100193.47;;;8.89;89.89
9523;BME280;63165;43.016;25.784;2023-10-08T05:08:34;100191.72;;;8.96;90.28
9523;BME280;63165;43.016;25.784;2023-10-08T05:11:14;100182.06;;;9.03;90.42
9523;BME280;63165;43.016;25.784;2023-10-08T05:14:12;100179.44;;;9.07;89.97
9523;BME280;63165;43.016;25.784;2023-10-08T05:16:55;100199.34;;;9.18;90.27
9523;BME280;63165;43.016;25.784;2023-10-08T05:19:26;100172.28;;;9.28;89.76
9523;BME280;63165;43.016;25.784;2023-10-08T05:22:13;100172.97;;;9.45;89.48
9523;BME280;63165;43.016;25.784;2023-10-08T05:25:01;100184.25;;;9.52;89.62
9523;BME280;63165;43.016;25.784;2023-10-08T05:27:38;100171.97;;;9.60;89.92
9523;BME280;63165;43.016;25.784;2023-10-08T05:30:24;100178.84;;;9.69;90.11
9523;BME280;63165;43.016;25.784;2023-10-08T05:33:05;100173.56;;;9.72;90.03
9523;BME280;63165;43.016;25.784;2023-10-08T05:35:39;100162.97;;;9.84;89.96
9523;BME280;63165;43.016;25.784;2023-10-08T05:38:22;100163.75;;;9.93;89.81
9523;BME280;63165;43.016;25.784;2023-10-08T05:41:04;100166.25;;;10.02;90.09
9523;BME280;63165;43.016;25.784;2023-10-08T05:43:38;100171.28;;;10.17;89.43
9523;BME280;63165;43.016;25.784;2023-10-08T05:46:21;100168.50;;;10.29;89.38
9523;BME280;63165;43.016;25.784;2023-10-08T05:49:14;100170.91;;;10.46;88.88
9523;BME280;63165;43.016;25.784;2023-10-08T05:52:20;100162.81;;;10.63;88.95
9523;BME280;63165;43.016;25.784;2023-10-08T05:55:08;100158.16;;;10.82;88.54
9523;BME280;63165;43.016;25.784;2023-10-08T05:57:48;100159.69;;;10.96;88.26
9523;BME280;63165;43.016;25.784;2023-10-08T06:00:18;100162.88;;;11.15;87.62
9523;BME280;63165;43.016;25.784;2023-10-08T06:03:03;100154.75;;;11.30;87.60
9523;BME280;63165;43.016;25.784;2023-10-08T06:05:47;100156.19;;;11.46;87.53
9523;BME280;63165;43.016;25.784;2023-10-08T06:08:33;100148.88;;;11.64;86.93
9523;BME280;63165;43.016;25.784;2023-10-08T06:11:16;100142.34;;;11.85;86.24
9523;BME280;63165;43.016;25.784;2023-10-08T06:14:03;100148.16;;;12.01;85.98
9523;BME280;63165;43.016;25.784;2023-10-08T06:16:40;100141.44;;;12.28;85.86
9523;BME280;63165;43.016;25.784;2023-10-08T06:19:12;100140.31;;;12.40;85.52
9523;BME280;63165;43.016;25.784;2023-10-08T06:21:39;100138.03;;;12.63;85.80
9523;BME280;63165;43.016;25.784;2023-10-08T06:24:08;100137.44;;;12.87;84.80
9523;BME280;63165;43.016;25.784;2023-10-08T06:26:38;100136.75;;;13.14;83.08
9523;BME280;63165;43.016;25.784;2023-10-08T06:29:11;100132.56;;;13.43;81.80
9523;BME280;63165;43.016;25.784;2023-10-08T06:31:54;100120.31;;;13.73;80.52
9523;BME280;63165;43.016;25.784;2023-10-08T06:34:22;100122.22;;;13.98;78.64
9523;BME280;63165;43.016;25.784;2023-10-08T06:36:53;100119.69;;;14.23;76.90
9523;BME280;63165;43.016;25.784;2023-10-08T06:39:21;100118.16;;;14.46;75.12
9523;BME280;63165;43.016;25.784;2023-10-08T06:41:54;100119.28;;;14.67;74.31
9523;BME280;63165;43.016;25.784;2023-10-08T06:44:24;100123.84;;;14.87;72.96
9523;BME280;63165;43.016;25.784;2023-10-08T06:46:53;100109.66;;;15.18;73.20
9523;BME280;63165;43.016;25.784;2023-10-08T06:49:22;100112.28;;;15.43;72.65
9523;BME280;63165;43.016;25.784;2023-10-08T06:51:51;100110.59;;;15.65;73.49
9523;BME280;63165;43.016;25.784;2023-10-08T06:54:19;100115.31;;;15.82;72.88
9523;BME280;63165;43.016;25.784;2023-10-08T06:56:48;100100.63;;;16.21;71.60
9523;BME280;63165;43.016;25.784;2023-10-08T06:59:20;100100.28;;;16.52;69.81
9523;BME280;63165;43.016;25.784;2023-10-08T07:01:48;100100.75;;;16.84;68.47
9523;BME280;63165;43.016;25.784;2023-10-08T07:04:17;100102.25;;;17.12;67.27
9523;BME280;63165;43.016;25.784;2023-10-08T07:06:47;100086.88;;;17.40;66.57
9523;BME280;63165;43.016;25.784;2023-10-08T07:09:17;100094.56;;;17.65;64.81
9523;BME280;63165;43.016;25.784;2023-10-08T07:11:55;100083.88;;;17.88;64.04
9523;BME280;63165;43.016;25.784;2023-10-08T07:14:24;100087.47;;;18.24;60.93
9523;BME280;63165;43.016;25.784;2023-10-08T07:16:53;100090.44;;;18.72;55.33
9523;BME280;63165;43.016;25.784;2023-10-08T07:19:21;100101.78;;;19.11;51.75
9523;BME280;63165;43.016;25.784;2023-10-08T07:21:58;100077.69;;;19.49;47.14
9523;BME280;63165;43.016;25.784;2023-10-08T07:24:31;100082.25;;;19.80;44.76
9523;BME280;63165;43.016;25.784;2023-10-08T07:27:01;100082.97;;;20.15;42.54
9523;BME280;63165;43.016;25.784;2023-10-08T07:29:36;100075.81;;;20.48;40.80
9523;BME280;63165;43.016;25.784;2023-10-08T07:32:03;100069.59;;;20.79;39.30
9523;BME280;63165;43.016;25.784;2023-10-08T07:34:35;100068.81;;;21.07;37.92
9523;BME280;63165;43.016;25.784;2023-10-08T07:37:03;100061.66;;;21.38;37.39
9523;BME280;63165;43.016;25.784;2023-10-08T07:39:31;100053.22;;;21.60;36.82
9523;BME280;63165;43.016;25.784;2023-10-08T07:42:09;100061.25;;;21.87;37.05
9523;BME280;63165;43.016;25.784;2023-10-08T07:44:38;100054.66;;;22.07;35.76
9523;BME280;63165;43.016;25.784;2023-10-08T07:47:06;100047.00;;;22.30;35.41
9523;BME280;63165;43.016;25.784;2023-10-08T07:49:37;100041.00;;;22.54;33.06
9523;BME280;63165;43.016;25.784;2023-10-08T07:52:05;100045.00;;;22.74;32.95
9523;BME280;63165;43.016;25.784;2023-10-08T07:54:32;100060.50;;;22.94;32.34
9523;BME280;63165;43.016;25.784;2023-10-08T07:57:00;100038.69;;;23.15;32.15
9523;BME280;63165;43.016;25.784;2023-10-08T07:59:34;100022.03;;;23.24;31.80
9523;BME280;63165;43.016;25.784;2023-10-08T08:02:05;100040.50;;;23.40;30.79
9523;BME280;63165;43.016;25.784;2023-10-08T08:04:36;100020.47;;;23.58;29.99
9523;BME280;63165;43.016;25.784;2023-10-08T08:07:03;100023.88;;;23.73;29.93
9523;BME280;63165;43.016;25.784;2023-10-08T08:09:31;100027.16;;;23.90;29.64
9523;BME280;63165;43.016;25.784;2023-10-08T08:12:05;100003.72;;;24.06;29.12
9523;BME280;63165;43.016;25.784;2023-10-08T08:14:37;100003.03;;;24.15;29.03
9523;BME280;63165;43.016;25.784;2023-10-08T08:17:08;100014.41;;;24.30;29.02
9523;BME280;63165;43.016;25.784;2023-10-08T08:19:40;99996.47;;;24.44;28.87
9523;BME280;63165;43.016;25.784;2023-10-08T08:22:08;99998.25;;;24.56;27.46
9523;BME280;63165;43.016;25.784;2023-10-08T08:24:40;99969.81;;;24.66;28.14
9523;BME280;63165;43.016;25.784;2023-10-08T08:27:10;99987.47;;;24.80;27.58
9523;BME280;63165;43.016;25.784;2023-10-08T08:29:50;99955.75;;;24.87;27.36
9523;BME280;63165;43.016;25.784;2023-10-08T08:32:22;99979.25;;;25.06;28.13
9523;BME280;63165;43.016;25.784;2023-10-08T08:34:50;99969.66;;;25.14;28.13
9523;BME280;63165;43.016;25.784;2023-10-08T08:37:18;99972.25;;;25.27;27.59
9523;BME280;63165;43.016;25.784;2023-10-08T08:39:48;99954.72;;;25.34;27.42
9523;BME280;63165;43.016;25.784;2023-10-08T08:42:17;99972.13;;;25.40;27.04
9523;BME280;63165;43.016;25.784;2023-10-08T08:44:50;99950.69;;;25.40;27.04
9523;BME280;63165;43.016;25.784;2023-10-08T08:47:20;99963.94;;;25.53;27.30
9523;BME280;63165;43.016;25.784;2023-10-08T08:49:53;99953.06;;;25.66;26.83
9523;BME280;63165;43.016;25.784;2023-10-08T08:52:22;99941.59;;;25.75;27.48
9523;BME280;63165;43.016;25.784;2023-10-08T08:54:49;99930.88;;;25.75;27.66
9523;BME280;63165;43.016;25.784;2023-10-08T08:57:18;99939.88;;;25.85;27.36
9523;BME280;63165;43.016;25.784;2023-10-08T08:59:51;99920.50;;;25.93;26.02
9523;BME280;63165;43.016;25.784;2023-10-08T09:02:19;99916.34;;;26.00;26.99
9523;BME280;63165;43.016;25.784;2023-10-08T09:04:48;99907.78;;;26.06;26.22
9523;BME280;63165;43.016;25.784;2023-10-08T09:07:19;99911.84;;;26.22;26.27
9523;BME280;63165;43.016;25.784;2023-10-08T09:09:47;99905.75;;;26.20;26.30
9523;BME280;63165;43.016;25.784;2023-10-08T09:12:16;99911.78;;;26.33;26.76
9523;BME280;63165;43.016;25.784;2023-10-08T09:14:44;99907.47;;;26.42;25.88
9523;BME280;63165;43.016;25.784;2023-10-08T09:17:13;99898.31;;;26.44;25.69
9523;BME280;63165;43.016;25.784;2023-10-08T09:19:40;99883.94;;;26.45;25.58
9523;BME280;63165;43.016;25.784;2023-10-08T09:22:09;99882.09;;;26.46;25.48
9523;BME280;63165;43.016;25.784;2023-10-08T09:24:40;99884.06;;;26.65;25.75
9523;BME280;63165;43.016;25.784;2023-10-08T09:27:10;99888.16;;;26.69;26.18
9523;BME280;63165;43.016;25.784;2023-10-08T09:29:40;99891.75;;;26.79;25.73
9523;BME280;63165;43.016;25.784;2023-10-08T09:32:09;99890.97;;;26.88;26.77
9523;BME280;63165;43.016;25.784;2023-10-08T09:34:36;99890.41;;;26.95;26.76
9523;BME280;63165;43.016;25.784;2023-10-08T09:37:03;99896.41;;;27.08;26.25
9523;BME280;63165;43.016;25.784;2023-10-08T09:39:31;99886.09;;;27.13;26.20
9523;BME280;63165;43.016;25.784;2023-10-08T09:42:03;99889.25;;;27.18;26.14
9523;BME280;63165;43.016;25.784;2023-10-08T09:44:37;99896.03;;;27.22;26.51
9523;BME280;63165;43.016;25.784;2023-10-08T09:47:06;99882.22;;;27.27;26.50
9523;BME280;63165;43.016;25.784;2023-10-08T09:49:39;99872.03;;;27.30;26.70
9523;BME280;63165;43.016;25.784;2023-10-08T09:52:08;99873.31;;;27.36;26.63
9523;BME280;63165;43.016;25.784;2023-10-08T09:54:42;99869.97;;;27.44;26.26
9523;BME280;63165;43.016;25.784;2023-10-08T09:57:12;99862.19;;;27.50;27.01
9523;BME280;63165;43.016;25.784;2023-10-08T09:59:40;99858.09;;;27.56;26.55
9523;BME280;63165;43.016;25.784;2023-10-08T10:02:08;99857.13;;;27.57;26.54
9523;BME280;63165;43.016;25.784;2023-10-08T10:04:41;99845.66;;;27.65;26.31
9523;BME280;63165;43.016;25.784;2023-10-08T10:07:10;99847.66;;;27.73;26.18
9523;BME280;63165;43.016;25.784;2023-10-08T10:09:40;99833.94;;;27.76;26.12
9523;BME280;63165;43.016;25.784;2023-10-08T10:12:15;99834.19;;;27.82;25.93
9523;BME280;63165;43.016;25.784;2023-10-08T10:14:46;99850.19;;;27.84;26.53
9523;BME280;63165;43.016;25.784;2023-10-08T10:17:20;99838.44;;;27.85;26.49
9523;BME280;63165;43.016;25.784;2023-10-08T10:19:50;99840.16;;;27.76;26.54
9523;BME280;63165;43.016;25.784;2023-10-08T10:22:27;99826.84;;;27.75;26.77
9523;BME280;63165;43.016;25.784;2023-10-08T10:24:57;99829.16;;;27.89;26.78
9523;BME280;63165;43.016;25.784;2023-10-08T10:27:27;99833.38;;;27.92;26.88
9523;BME280;63165;43.016;25.784;2023-10-08T10:30:01;99814.53;;;28.01;26.68
9523;BME280;63165;43.016;25.784;2023-10-08T10:32:34;99820.34;;;28.06;26.70
9523;BME280;63165;43.016;25.784;2023-10-08T10:35:02;99794.03;;;28.00;27.32
9523;BME280;63165;43.016;25.784;2023-10-08T10:37:32;99826.41;;;28.18;26.87
9523;BME280;63165;43.016;25.784;2023-10-08T10:40:08;99805.75;;;28.19;26.33
9523;BME280;63165;43.016;25.784;2023-10-08T10:42:39;99809.22;;;28.39;26.36
9523;BME280;63165;43.016;25.784;2023-10-08T10:45:14;99801.00;;;28.40;26.43
9523;BME280;63165;43.016;25.784;2023-10-08T10:48:01;99790.78;;;28.44;25.94
9523;BME280;63165;43.016;25.784;2023-10-08T10:50:39;99790.19;;;28.50;25.72
9523;BME280;63165;43.016;25.784;2023-10-08T10:53:17;99787.81;;;28.57;25.39
9523;BME280;63165;43.016;25.784;2023-10-08T10:55:43;99786.06;;;28.65;25.85
9523;BME280;63165;43.016;25.784;2023-10-08T10:58:26;99768.16;;;28.74;25.64
9523;BME280;63165;43.016;25.784;2023-10-08T11:00:54;99749.31;;;28.74;25.54
9523;BME280;63165;43.016;25.784;2023-10-08T11:03:25;99764.81;;;28.90;25.54
9523;BME280;63165;43.016;25.784;2023-10-08T11:05:57;99759.44;;;28.90;25.61
9523;BME280;63165;43.016;25.784;2023-10-08T11:08:31;99758.06;;;29.04;25.89
9523;BME280;63165;43.016;25.784;2023-10-08T11:11:01;99746.25;;;29.15;25.60
9523;BME280;63165;43.016;25.784;2023-10-08T11:13:34;99767.28;;;29.29;25.12
9523;BME280;63165;43.016;25.784;2023-10-08T11:16:05;99755.66;;;29.47;24.81
9523;BME280;63165;43.016;25.784;2023-10-08T11:18:33;99777.44;;;29.53;24.85
9523;BME280;63165;43.016;25.784;2023-10-08T11:21:08;99751.53;;;29.60;24.48
9523;BME280;63165;43.016;25.784;2023-10-08T11:23:42;99746.16;;;29.78;25.07
9523;BME280;63165;43.016;25.784;2023-10-08T11:26:12;99741.84;;;29.86;25.13
9523;BME280;63165;43.016;25.784;2023-10-08T11:28:43;99732.19;;;29.83;25.11
9523;BME280;63165;43.016;25.784;2023-10-08T11:31:14;99754.78;;;29.82;24.60
9523;BME280;63165;43.016;25.784;2023-10-08T11:33:46;99725.34;;;29.71;24.52
9523;BME280;63165;43.016;25.784;2023-10-08T11:36:20;99740.75;;;29.60;24.07
9523;BME280;63165;43.016;25.784;2023-10-08T11:38:53;99749.25;;;29.48;24.40
9523;BME280;63165;43.016;25.784;2023-10-08T11:41:27;99750.78;;;29.32;24.19
9523;BME280;63165;43.016;25.784;2023-10-08T11:43:57;99748.03;;;29.24;24.90
9523;BME280;63165;43.016;25.784;2023-10-08T11:46:26;99749.66;;;29.17;24.77
9523;BME280;63165;43.016;25.784;2023-10-08T11:48:59;99740.75;;;29.07;24.32
9523;BME280;63165;43.016;25.784;2023-10-08T11:51:31;99742.38;;;28.99;25.34
9523;BME280;63165;43.016;25.784;2023-10-08T11:53:59;99738.13;;;28.97;25.04
9523;BME280;63165;43.016;25.784;2023-10-08T11:56:28;99743.72;;;28.85;25.35
9523;BME280;63165;43.016;25.784;2023-10-08T11:58:57;99739.34;;;28.84;25.86
9523;BME280;63165;43.016;25.784;2023-10-08T12:01:26;99719.81;;;28.82;26.33
9523;BME280;63165;43.016;25.784;2023-10-08T12:03:53;99720.19;;;28.88;26.23
9523;BME280;63165;43.016;25.784;2023-10-08T12:06:25;99723.97;;;28.95;26.46
9523;BME280;63165;43.016;25.784;2023-10-08T12:08:55;99726.34;;;28.98;26.28
9523;BME280;63165;43.016;25.784;2023-10-08T12:11:24;99705.88;;;28.87;26.62
9523;BME280;63165;43.016;25.784;2023-10-08T12:13:58;99714.09;;;28.85;26.91
9523;BME280;63165;43.016;25.784;2023-10-08T12:16:26;99721.59;;;28.92;27.34
9523;BME280;63165;43.016;25.784;2023-10-08T12:18:56;99721.97;;;28.97;26.58
9523;BME280;63165;43.016;25.784;2023-10-08T12:21:26;99701.44;;;29.14;26.06
9523;BME280;63165;43.016;25.784;2023-10-08T12:23:55;99698.22;;;29.28;26.03
9523;BME280;63165;43.016;25.784;2023-10-08T12:26:23;99685.03;;;29.43;25.85
9523;BME280;63165;43.016;25.784;2023-10-08T12:28:51;99697.09;;;29.57;25.85
9523;BME280;63165;43.016;25.784;2023-10-08T12:31:21;99720.59;;;29.65;25.07
9523;BME280;63165;43.016;25.784;2023-10-08T12:33:50;99706.72;;;29.59;25.37
9523;BME280;63165;43.016;25.784;2023-10-08T12:36:19;99708.75;;;29.57;25.55
9523;BME280;63165;43.016;25.784;2023-10-08T12:38:49;99700.56;;;29.49;25.93
9523;BME280;63165;43.016;25.784;2023-10-08T12:41:23;99711.59;;;29.38;25.84
9523;BME280;63165;43.016;25.784;2023-10-08T12:43:53;99711.84;;;29.27;26.13
9523;BME280;63165;43.016;25.784;2023-10-08T12:46:22;99699.00;;;29.20;25.83
9523;BME280;63165;43.016;25.784;2023-10-08T12:48:52;99693.13;;;29.07;26.18
9523;BME280;63165;43.016;25.784;2023-10-08T12:51:20;99700.13;;;29.00;26.34
9523;BME280;63165;43.016;25.784;2023-10-08T12:53:50;99692.66;;;28.94;26.37
9523;BME280;63165;43.016;25.784;2023-10-08T12:56:24;99684.72;;;28.92;26.31
9523;BME280;63165;43.016;25.784;2023-10-08T12:58:58;99694.19;;;28.96;26.44
9523;BME280;63165;43.016;25.784;2023-10-08T13:01:27;99693.19;;;28.97;26.41
9523;BME280;63165;43.016;25.784;2023-10-08T13:03:56;99693.72;;;29.01;26.54
9523;BME280;63165;43.016;25.784;2023-10-08T13:06:27;99683.97;;;29.00;26.50
9523;BME280;63165;43.016;25.784;2023-10-08T13:08:55;99689.50;;;28.98;26.65
9523;BME280;63165;43.016;25.784;2023-10-08T13:11:24;99679.56;;;28.99;26.97
9523;BME280;63165;43.016;25.784;2023-10-08T13:13:52;99687.28;;;28.94;27.27
9523;BME280;63165;43.016;25.784;2023-10-08T13:16:25;99683.72;;;28.93;26.81
9523;BME280;63165;43.016;25.784;2023-10-08T13:18:58;99676.25;;;28.87;26.80
9523;BME280;63165;43.016;25.784;2023-10-08T13:21:27;99678.31;;;28.75;27.06
9523;BME280;63165;43.016;25.784;2023-10-08T13:23:54;99677.09;;;28.70;27.44